Flight Track Log - Related Links

Times and Time Zones

All times are in EDT time to prevent confusion due to time zone crossing. See the N234CE flight status page for this flight to view local times or setup timezone preferences in your user account.

Time Position Orientation Groundspeed Altitude Reporting Facility
EDT Latitude Longitude Course Direction KTS MPH feet Rate Location/Type
Thu 05:48:35 PM 67.1167 -150.4667 243° Southwest 120 138 6,000  Level Anchorage Center
Thu 05:49:36 PM 67.0833 -150.4667 180° South 140 161 6,900 893 Climbing Anchorage Center
Thu 05:50:36 PM 67.0667 -150.4000 123° Southeast 180 207 7,800 900 Climbing Anchorage Center
Thu 05:51:00 PM 67.0204 -149.9588 158° South  Level Estimated
Thu 05:51:36 PM 67.0333 -150.3667 159° South 100 115 8,700  Level Anchorage Center
Thu 05:52:00 PM 66.9816 -149.9189 158° South  Level FlightAware Approximate
Thu 05:52:36 PM 66.9833 -150.3167 159° South 190 219 9,000  Level Anchorage Center
Thu 05:53:37 PM 66.9500 -150.2667 150° Southeast 190 219 9,000  Level Anchorage Center
Thu 05:54:37 PM 66.9000 -150.2167 159° South 160 184 9,000  Level Anchorage Center
Thu 05:55:37 PM 66.8667 -150.1500 142° Southeast 170 196 9,000  Level Anchorage Center
Thu 05:56:38 PM 66.8167 -150.1000 159° South 180 207 9,000  Level Anchorage Center
Thu 05:57:38 PM 66.7667 -150.0500 158° South 180 207 9,000  Level Anchorage Center
Thu 05:58:38 PM 66.7333 -150.0000 149° Southeast 170 196 9,000  Level Anchorage Center
Thu 05:59:39 PM 66.6833 -149.9500 158° South 160 184 9,000  Level Anchorage Center
Thu 06:00:39 PM 66.6333 -149.8833 152° Southeast 170 196 9,000  Level Anchorage Center
Thu 06:01:39 PM 66.6000 -149.8333 149° Southeast 180 207 9,000  Level Anchorage Center
Thu 06:02:40 PM 66.5500 -149.8000 165° South 160 184 9,000  Level Anchorage Center
Thu 06:03:40 PM 66.5000 -149.7500 158° South 170 196 9,000  Level Anchorage Center
Thu 06:04:41 PM 66.4667 -149.6833 141° Southeast 180 207 9,000  Level Anchorage Center
Thu 06:05:41 PM 66.4167 -149.6333 158° South 170 196 9,000  Level Anchorage Center
Thu 06:06:41 PM 66.3667 -149.5833 158° South 170 196 9,000  Level Anchorage Center
Thu 06:07:42 PM 66.3333 -149.5167 141° Southeast 170 196 9,000  Level Anchorage Center
Thu 06:08:42 PM 66.2833 -149.4333 146° Southeast 180 207 9,000  Level Anchorage Center
Thu 06:09:42 PM 66.2333 -149.3833 158° South 170 196 9,000  Level Anchorage Center
Thu 06:10:43 PM 66.2000 -149.3333 149° Southeast 180 207 9,000  Level Anchorage Center
Thu 06:11:43 PM 66.1500 -149.2833 158° South 190 219 9,000  Level Anchorage Center
Thu 06:12:43 PM 66.1000 -149.2333 158° South 180 207 9,000  Level Anchorage Center
Thu 06:13:44 PM 66.0667 -149.1833 149° Southeast 180 207 9,000  Level Anchorage Center
Thu 06:14:44 PM 66.0167 -149.1333 158° South 190 219 9,000  Level Anchorage Center
Thu 06:15:44 PM 65.9667 -149.0833 158° South 170 196 9,000  Level Anchorage Center
Thu 06:16:44 PM 65.9167 -149.0333 158° South 180 207 9,000  Level Anchorage Center
Thu 06:17:45 PM 65.8833 -148.9833 148° Southeast 180 207 9,000  Level Anchorage Center
Thu 06:18:45 PM 65.8333 -148.9333 158° South 170 196 9,000 100 Level Anchorage Center
Thu 06:19:45 PM 65.7833 -148.8833 158° South 180 207 9,200 50 Climbing Anchorage Center
Thu 06:20:46 PM 65.7500 -148.8500 158° South 170 196 9,100 -50 Descending Anchorage Center
Thu 06:21:46 PM 65.7000 -148.8000 158° South 180 207 9,100  Level Anchorage Center
Thu 06:22:46 PM 65.6500 -148.7500 158° South 180 207 9,100 -50 Level Anchorage Center
Thu 06:23:47 PM 65.6000 -148.7000 158° South 180 207 9,000 -198 Descending Anchorage Center
Thu 06:24:47 PM 65.5667 -148.6500 148° Southeast 180 207 8,700 -248 Descending Anchorage Center
Thu 06:25:48 PM 65.5167 -148.5833 151° Southeast 190 219 8,500 -248 Descending Anchorage Center
Thu 06:26:48 PM 65.4667 -148.5333 157° South 190 219 8,200 -300 Descending Anchorage Center
Thu 06:28:00 PM 65.4207 -148.4615 147° Southeast  Level FlightAware Approximate
Thu 06:35:00 PM 65.1322 -148.1378 162° South  Level FlightAware Approximate
Thu 06:36:00 PM 65.0888 -148.1042 162° South  Level FlightAware Approximate
Thu 06:37:00 PM 65.0458 -148.0676 160° South  Level FlightAware Approximate
Thu 06:38:00 PM 65.0029 -148.0306 160° South  Level FlightAware Approximate
Thu 06:39:00 PM 64.9600 -147.9938 160° South  Level FlightAware Approximate
Thu 06:40:00 PM 64.9171 -147.9571 160° South  Level FlightAware Approximate
Thu 06:41:00 PM 64.8741 -147.9205 160° South  Level FlightAware Approximate
Thu 06:42:00 PM 64.8316 -147.8816 157° South  Level FlightAware Approximate
Thu 06:43:00 PM 64.8151 -147.8564 157° South  Level Estimated
Thu 06:44:00 PM 64.8151 -147.8564 157° South  Level Estimated
Thu 06:45:00 PM 64.8151 -147.8564 157° South  Level Estimated
Thu 06:46:00 PM 64.8151 -147.8564 157° South  Level Estimated
Thu 06:47:00 PM 64.8151 -147.8564 157° South  Level Estimated
Thu 06:48:00 PM 64.8151 -147.8564 157° South  Level Estimated
Thu 06:49:00 PM 64.8151 -147.8564 157° South  Level Estimated
Thu 06:50:00 PM 64.8151 -147.8564 157° South  Level Estimated
Thu 06:51:00 PM 64.8151 -147.8564 157° South  Level Estimated
Thu 06:52:00 PM 64.8151 -147.8564 157° South  Level Estimated
Thu 06:53:00 PM 64.8151 -147.8564 157° South  Level Estimated
Thu 06:54:00 PM 64.8151 -147.8564 157° South  Level Estimated
Thu 06:55:00 PM 64.8151 -147.8564 157° South  Level Estimated
Thu 06:56:00 PM 64.8151 -147.8564 157° South  Level Estimated
Thu 06:57:00 PM 64.8151 -147.8564 157° South  Level Estimated
Thu 06:58:00 PM 64.8151 -147.8564 157° South  Level Estimated
Thu 06:59:00 PM 64.8151 -147.8564 157° South  Level Estimated

Login

Don't have an account? Register now (free) for customized features, flight alerts, and more!